Time;durP1;ratioP1;P1;durP2;ratioP2;P2;SDS_P1;SDS_P2;PMS_P1;PMS_P2;Temp;Humidity;BMP_temperature;BMP_pressure;BME280_temperature;BME280_humidity;BME280_pressure;Samples;Min_cycle;Max_cycle;Signal;HPM_P1;HPM_P2
2023/08/03 00:01:56;;;;;;;4.22;2.03;;;18.30;99.90;;;;;;5093163;28;20127;-71
2023/08/03 00:04:22;;;;;;;8.30;3.15;;;18.30;99.90;;;;;;5093352;28;20054;-71
2023/08/03 00:06:48;;;;;;;1.38;1.27;;;18.40;99.90;;;;;;5093420;28;20016;-71
2023/08/03 00:09:14;;;;;;;1.65;0.75;;;18.30;99.90;;;;;;5093497;28;20111;-71
2023/08/03 00:11:40;;;;;;;1.92;1.55;;;18.30;99.90;;;;;;5092892;28;20028;-71
2023/08/03 00:14:05;;;;;;;10.43;2.40;;;18.40;99.90;;;;;;5092010;28;20502;-70
2023/08/03 00:16:31;;;;;;;0.52;0.52;;;18.20;99.90;;;;;;5090164;28;20056;-71
2023/08/03 00:18:57;;;;;;;0.10;0.10;;;18.30;99.90;;;;;;5081957;28;20036;-71
2023/08/03 00:21:23;;;;;;;1.23;0.32;;;18.30;99.90;;;;;;5092627;28;20056;-71
2023/08/03 00:23:48;;;;;;;10.75;1.33;;;18.30;99.90;;;;;;5093217;28;20020;-71
2023/08/03 00:26:14;;;;;;;3.70;1.45;;;18.30;99.90;;;;;;5092684;28;20110;-71
2023/08/03 00:28:41;;;;;;;0.25;0.25;;;18.20;99.90;;;;;;5092966;28;20032;-71
2023/08/03 00:31:07;;;;;;;9.32;1.05;;;18.40;99.90;;;;;;5092924;28;20061;-72
2023/08/03 00:33:33;;;;;;;12.77;1.48;;;18.30;99.90;;;;;;5092799;28;20020;-70
2023/08/03 00:35:59;;;;;;;7.05;1.67;;;18.30;99.90;;;;;;5093015;28;20504;-70
2023/08/03 00:38:24;;;;;;;0.88;0.88;;;18.20;99.90;;;;;;5092861;28;20047;-71
2023/08/03 00:40:51;;;;;;;1.92;0.47;;;18.10;99.90;;;;;;5092511;28;20024;-71
2023/08/03 00:43:17;;;;;;;4.15;1.92;;;18.10;99.90;;;;;;5091681;28;20063;-71
2023/08/03 00:45:43;;;;;;;1.60;0.85;;;18.10;99.90;;;;;;5093028;28;20110;-78
2023/08/03 00:48:09;;;;;;;18.38;4.38;;;18.10;99.90;;;;;;5092973;28;20073;-78
2023/08/03 00:50:36;;;;;;;16.17;3.53;;;18.10;99.90;;;;;;5091197;28;20032;-79
2023/08/03 00:53:03;;;;;;;14.35;2.58;;;18.10;99.90;;;;;;5092800;28;20039;-78
2023/08/03 00:55:29;;;;;;;11.30;2.85;;;18.20;99.90;;;;;;5091078;28;20497;-79
2023/08/03 00:57:55;;;;;;;0.90;0.68;;;18.10;99.90;;;;;;5087794;28;20036;-76
2023/08/03 01:00:21;;;;;;;0.15;0.15;;;18.10;99.90;;;;;;5072321;28;20469;-78
2023/08/03 01:02:48;;;;;;;14.70;3.28;;;18.20;99.90;;;;;;5082439;28;20060;-79
2023/08/03 01:05:14;;;;;;;14.93;2.80;;;18.10;99.90;;;;;;5069473;28;20388;-79
2023/08/03 01:07:40;;;;;;;0.47;0.05;;;18.20;99.90;;;;;;5072241;28;20032;-77
2023/08/03 01:10:07;;;;;;;1.55;1.02;;;18.20;99.90;;;;;;5072218;28;20052;-78
2023/08/03 01:12:32;;;;;;;5.90;1.17;;;18.20;99.90;;;;;;5070763;28;20027;-78
2023/08/03 01:14:58;;;;;;;6.45;1.65;;;18.20;99.90;;;;;;5072398;28;20436;-78
2023/08/03 01:17:25;;;;;;;3.22;1.25;;;18.20;99.90;;;;;;5072148;28;20499;-79
2023/08/03 01:19:51;;;;;;;24.90;3.33;;;18.30;99.90;;;;;;5088725;28;20032;-78
2023/08/03 01:22:18;;;;;;;2.55;1.30;;;18.10;99.90;;;;;;5091182;28;20028;-78
2023/08/03 01:24:44;;;;;;;11.30;3.08;;;18.20;99.90;;;;;;5090894;28;20476;-79
2023/08/03 01:27:10;;;;;;;4.75;1.42;;;18.20;99.90;;;;;;5092664;28;20024;-79
2023/08/03 01:29:35;;;;;;;20.48;3.33;;;18.20;99.90;;;;;;5092384;28;20475;-79
2023/08/03 01:32:02;;;;;;;6.93;1.52;;;18.10;99.90;;;;;;5091641;28;20526;-71
2023/08/03 01:34:28;;;;;;;6.05;1.27;;;18.10;99.90;;;;;;5096246;28;20024;-72
2023/08/03 01:36:54;;;;;;;3.88;1.92;;;18.10;99.90;;;;;;5095908;28;20024;-72
2023/08/03 01:39:22;;;;;;;16.58;3.00;;;18.10;99.90;;;;;;5095882;28;20325;-70
2023/08/03 01:41:48;;;;;;;13.75;2.42;;;18.10;99.90;;;;;;5096282;28;20020;-71
2023/08/03 01:44:17;;;;;;;18.23;2.58;;;18.10;99.90;;;;;;5094954;28;20415;-70
2023/08/03 01:46:43;;;;;;;2.42;1.10;;;18.00;99.90;;;;;;5094879;28;20028;-70
2023/08/03 01:49:09;;;;;;;3.90;1.15;;;18.00;99.90;;;;;;5095710;28;20110;-70
2023/08/03 01:51:36;;;;;;;6.30;0.90;;;18.00;99.90;;;;;;5095909;28;20157;-70
2023/08/03 01:54:01;;;;;;;17.40;3.60;;;18.00;99.90;;;;;;5095501;28;20023;-70
2023/08/03 01:56:27;;;;;;;4.88;2.70;;;17.90;99.90;;;;;;5095847;28;20091;-70
2023/08/03 01:58:53;;;;;;;5.93;1.55;;;17.90;99.90;;;;;;5095458;28;20118;-71
2023/08/03 02:01:19;;;;;;;13.50;2.50;;;18.00;99.90;;;;;;5094460;28;20391;-70
2023/08/03 02:03:44;;;;;;;9.85;3.40;;;17.90;99.90;;;;;;5095511;28;20096;-70
2023/08/03 02:06:10;;;;;;;20.55;1.55;;;17.90;99.90;;;;;;5094409;28;20020;-70
2023/08/03 02:08:36;;;;;;;5.35;2.05;;;17.90;99.90;;;;;;5094168;28;20091;-70
2023/08/03 02:11:03;;;;;;;7.03;1.58;;;18.00;99.90;;;;;;5095434;28;20043;-70
2023/08/03 02:13:33;;;;;;;18.65;3.20;;;18.00;99.90;;;;;;5095536;28;20036;-69
2023/08/03 02:16:02;;;;;;;4.00;2.95;;;18.00;99.90;;;;;;5095641;28;20846;-70
2023/08/03 02:18:29;;;;;;;23.23;4.00;;;18.00;99.90;;;;;;5080975;28;20036;-69
2023/08/03 02:20:55;;;;;;;5.45;1.35;;;18.00;99.90;;;;;;5094187;28;20362;-70
2023/08/03 02:23:21;;;;;;;9.48;2.47;;;18.00;99.90;;;;;;5095098;28;20042;-70
2023/08/03 02:25:47;;;;;;;4.50;1.90;;;18.00;99.90;;;;;;5095180;28;20016;-70
2023/08/03 02:28:14;;;;;;;7.18;1.92;;;18.00;99.90;;;;;;5094975;28;20058;-79
2023/08/03 02:30:40;;;;;;;1.38;0.98;;;18.00;99.90;;;;;;5094079;28;20024;-79
2023/08/03 02:33:08;;;;;;;11.15;3.47;;;18.10;99.90;;;;;;5093805;28;20063;-77
2023/08/03 02:35:37;;;;;;;0.00;0.00;;;18.00;99.90;;;;;;5093830;28;20066;-79
2023/08/03 02:38:03;;;;;;;4.45;1.38;;;18.10;99.90;;;;;;5084601;28;20618;-79
2023/08/03 02:40:30;;;;;;;19.65;2.97;;;18.10;99.90;;;;;;5073523;28;20024;-79
2023/08/03 02:42:57;;;;;;;9.25;3.03;;;18.20;99.90;;;;;;5076703;28;20028;-79
2023/08/03 02:45:23;;;;;;;11.63;1.73;;;18.20;99.90;;;;;;5092834;28;20028;-79
2023/08/03 02:47:51;;;;;;;1.55;0.98;;;18.10;99.90;;;;;;5079308;28;20150;-79
2023/08/03 02:50:20;;;;;;;14.88;3.50;;;18.10;99.90;;;;;;5093559;28;20042;-77
2023/08/03 02:52:47;;;;;;;1.95;0.73;;;18.00;99.90;;;;;;5093305;28;20024;-78
2023/08/03 02:55:14;;;;;;;9.65;2.45;;;18.10;99.90;;;;;;5084461;28;20028;-78
2023/08/03 02:57:42;;;;;;;6.00;1.48;;;18.10;99.90;;;;;;5088374;28;20059;-79
2023/08/03 03:00:10;;;;;;;14.63;3.03;;;18.10;99.90;;;;;;5093277;28;20457;-79
2023/08/03 03:02:37;;;;;;;8.68;2.00;;;18.20;99.90;;;;;;5093087;28;20024;-78
2023/08/03 03:05:04;;;;;;;5.65;1.35;;;18.10;99.90;;;;;;5093358;28;20051;-79
2023/08/03 03:07:34;;;;;;;4.82;1.60;;;18.20;99.90;;;;;;5093006;28;20024;-77
2023/08/03 03:10:01;;;;;;;15.25;2.42;;;18.20;99.90;;;;;;5093127;28;20088;-79
2023/08/03 03:12:27;;;;;;;0.70;0.68;;;18.20;99.90;;;;;;5084072;28;20043;-78
2023/08/03 03:14:52;;;;;;;12.15;2.92;;;18.30;99.90;;;;;;5088755;28;20107;-79
2023/08/03 03:17:18;;;;;;;0.28;0.28;;;18.30;99.90;;;;;;5092970;28;20548;-79
2023/08/03 03:19:47;;;;;;;3.47;1.33;;;18.40;99.90;;;;;;5092654;28;20110;-74
2023/08/03 03:22:14;;;;;;;0.80;0.22;;;18.50;99.90;;;;;;5092756;28;20499;-78
2023/08/03 03:24:40;;;;;;;5.93;1.70;;;18.40;99.90;;;;;;5092704;28;20044;-79
2023/08/03 03:27:06;;;;;;;0.00;0.00;;;18.40;99.90;;;;;;5092779;28;20206;-79
2023/08/03 03:29:38;;;;;;;1.90;0.77;;;18.40;99.90;;;;;;5092666;28;20549;-78
2023/08/03 03:32:04;;;;;;;0.08;0.08;;;18.30;99.90;;;;;;5092668;28;20476;-78
2023/08/03 03:34:32;;;;;;;3.45;1.00;;;18.40;99.90;;;;;;5092559;28;20063;-78
2023/08/03 03:36:58;;;;;;;5.88;1.58;;;18.40;99.90;;;;;;5092133;28;20054;-77
2023/08/03 03:39:24;;;;;;;5.32;1.33;;;18.30;99.90;;;;;;5092671;28;20059;-79
2023/08/03 03:41:50;;;;;;;0.88;0.73;;;18.20;99.90;;;;;;5092306;28;20495;-72
2023/08/03 03:44:18;;;;;;;0.50;0.47;;;18.20;99.90;;;;;;5078668;28;20388;-78
2023/08/03 03:46:44;;;;;;;2.67;1.10;;;18.30;99.90;;;;;;5080639;28;20020;-79
2023/08/03 03:49:10;;;;;;;6.32;1.98;;;18.10;99.90;;;;;;5089417;28;20181;-78
2023/08/03 03:51:37;;;;;;;4.22;1.45;;;18.20;99.90;;;;;;5075463;28;20036;-78
2023/08/03 03:54:03;;;;;;;1.67;0.68;;;18.20;99.90;;;;;;5092193;28;20028;-78
2023/08/03 03:56:31;;;;;;;1.30;0.68;;;18.10;99.90;;;;;;5091283;28;20030;-76
2023/08/03 03:58:57;;;;;;;2.92;0.80;;;18.00;99.90;;;;;;5092141;28;20118;-79
2023/08/03 04:01:23;;;;;;;4.28;1.42;;;18.10;99.90;;;;;;5091887;28;20089;-79
2023/08/03 04:03:51;;;;;;;3.60;0.98;;;18.10;99.90;;;;;;5091468;28;20028;-79
2023/08/03 04:06:17;;;;;;;1.85;1.17;;;18.10;99.90;;;;;;5091639;28;20020;-78
2023/08/03 04:08:45;;;;;;;0.17;0.17;;;18.10;99.90;;;;;;5091866;28;20016;-79
2023/08/03 04:11:10;;;;;;;2.35;0.50;;;18.10;99.90;;;;;;5091789;28;20481;-79
2023/08/03 04:13:36;;;;;;;0.63;0.40;;;18.20;99.90;;;;;;5093294;28;20024;-78
2023/08/03 04:16:02;;;;;;;0.52;0.52;;;18.10;99.90;;;;;;5093020;28;20465;-79
2023/08/03 04:18:31;;;;;;;2.45;1.23;;;18.10;99.90;;;;;;5091725;28;20031;-78
2023/08/03 04:20:57;;;;;;;8.68;1.23;;;18.20;99.90;;;;;;5091839;28;20105;-79
2023/08/03 04:23:23;;;;;;;1.25;0.57;;;18.20;99.90;;;;;;5092040;28;20403;-79
2023/08/03 04:25:50;;;;;;;0.20;0.20;;;18.10;99.90;;;;;;5091721;28;20392;-79
2023/08/03 04:28:18;;;;;;;0.57;0.17;;;18.10;99.90;;;;;;5091338;28;20365;-79
2023/08/03 04:30:44;;;;;;;1.70;0.30;;;18.20;99.90;;;;;;5091271;28;20031;-80
2023/08/03 04:33:11;;;;;;;12.30;0.60;;;18.20;99.90;;;;;;5091393;28;20484;-79
2023/08/03 04:35:40;;;;;;;3.30;1.20;;;18.20;99.90;;;;;;5091749;28;20031;-79
2023/08/03 04:38:19;;;;;;;1.55;0.65;;;18.00;99.90;;;;;;5091310;28;20081;-79
2023/08/03 04:40:50;;;;;;;;;;;18.20;99.90;;;;;;5091885;28;20027;-76
2023/08/03 04:43:18;;;;;;;6.68;1.13;;;18.00;99.90;;;;;;5091697;28;19908;-79
2023/08/03 04:45:43;;;;;;;0.20;0.20;;;18.00;99.90;;;;;;5089573;28;20043;-78
2023/08/03 04:48:10;;;;;;;1.75;0.90;;;18.00;99.90;;;;;;5080314;28;20032;-79
2023/08/03 04:50:36;;;;;;;1.65;0.50;;;18.10;99.90;;;;;;5091469;28;20063;-79
2023/08/03 04:53:02;;;;;;;7.65;1.55;;;18.10;99.90;;;;;;5092814;28;20031;-79
2023/08/03 04:55:29;;;;;;;2.80;0.45;;;18.10;99.90;;;;;;5091733;28;20069;-79
2023/08/03 04:57:55;;;;;;;4.32;0.73;;;18.10;99.90;;;;;;5092392;28;20442;-79
2023/08/03 05:00:22;;;;;;;3.58;0.90;;;18.00;99.90;;;;;;5089293;28;20403;-78
2023/08/03 05:02:48;;;;;;;0.60;0.55;;;18.10;99.90;;;;;;5084299;28;20040;-79
2023/08/03 05:05:14;;;;;;;5.93;0.73;;;18.20;99.90;;;;;;5070770;28;20044;-76
2023/08/03 05:07:40;;;;;;;2.45;1.20;;;18.00;99.90;;;;;;5073086;28;20056;-79
2023/08/03 05:10:07;;;;;;;0.30;0.30;;;17.90;99.90;;;;;;5064504;28;20045;-77
2023/08/03 05:12:32;;;;;;;0.63;0.45;;;18.00;99.90;;;;;;5075813;28;20075;-79
2023/08/03 05:14:58;;;;;;;1.58;0.95;;;18.10;99.90;;;;;;5074957;28;20052;-77
2023/08/03 05:17:24;;;;;;;0.30;0.30;;;18.20;99.90;;;;;;5074816;28;20373;-79
2023/08/03 05:19:50;;;;;;;5.55;1.42;;;17.90;99.90;;;;;;5074750;28;20425;-79
2023/08/03 05:22:16;;;;;;;3.67;0.82;;;17.80;99.90;;;;;;5076417;28;20063;-78
2023/08/03 05:24:41;;;;;;;4.47;1.67;;;17.90;99.90;;;;;;5075950;28;20440;-76
2023/08/03 05:27:09;;;;;;;0.40;0.40;;;17.80;99.90;;;;;;5074842;28;20033;-79
2023/08/03 05:29:35;;;;;;;11.30;2.20;;;17.80;99.90;;;;;;5076076;28;20056;-79
2023/08/03 05:32:01;;;;;;;1.00;0.20;;;17.80;99.90;;;;;;5075713;28;20055;-78
2023/08/03 05:34:27;;;;;;;0.88;0.60;;;18.00;99.90;;;;;;5075976;28;20123;-80
2023/08/03 05:36:52;;;;;;;0.75;0.32;;;17.90;99.90;;;;;;5075157;28;20457;-79
2023/08/03 05:39:18;;;;;;;0.20;0.20;;;18.10;99.90;;;;;;5075659;28;20047;-79
2023/08/03 05:41:44;;;;;;;3.30;0.98;;;18.00;99.90;;;;;;5075241;28;20024;-79
2023/08/03 05:44:13;;;;;;;0.30;0.10;;;17.90;99.90;;;;;;5075605;28;20031;-81
2023/08/03 05:46:39;;;;;;;1.75;1.65;;;18.00;99.90;;;;;;5076558;28;20538;-77
2023/08/03 05:49:04;;;;;;;0.03;0.03;;;17.90;99.90;;;;;;5091223;28;20042;-79
2023/08/03 05:51:30;;;;;;;3.63;0.80;;;17.80;99.90;;;;;;5082627;28;20182;-80
2023/08/03 05:53:57;;;;;;;8.57;1.80;;;17.90;99.90;;;;;;5083995;28;20108;-78
2023/08/03 05:56:23;;;;;;;4.10;0.63;;;18.00;99.90;;;;;;5076121;28;20116;-80
2023/08/03 05:58:50;;;;;;;1.02;0.43;;;18.10;99.90;;;;;;5083256;28;20055;-75
2023/08/03 06:01:21;;;;;;;0.15;0.15;;;17.80;99.90;;;;;;5082560;28;20024;-79
2023/08/03 06:03:47;;;;;;;0.03;0.03;;;18.00;99.90;;;;;;5079322;28;20194;-79
2023/08/03 06:06:19;;;;;;;1.52;0.45;;;18.00;99.90;;;;;;5083400;28;20025;-79
2023/08/03 06:08:50;;;;;;;5.20;1.25;;;18.10;99.90;;;;;;5079289;28;20488;-80
2023/08/03 06:11:20;;;;;;;1.65;0.80;;;17.90;99.90;;;;;;5077880;28;20032;-80
2023/08/03 06:13:47;;;;;;;5.55;1.85;;;17.80;99.90;;;;;;5076469;28;20021;-80
2023/08/03 06:16:13;;;;;;;8.48;2.10;;;17.70;99.90;;;;;;5080444;28;20536;-81
2023/08/03 06:18:50;;;;;;;5.70;0.65;;;17.50;99.90;;;;;;5083913;28;20028;-78
2023/08/03 06:21:17;;;;;;;1.35;0.40;;;17.70;99.90;;;;;;5078811;28;20020;-80
2023/08/03 06:23:49;;;;;;;1.75;0.95;;;17.70;99.90;;;;;;5076190;28;20052;-79
2023/08/03 06:26:17;;;;;;;5.30;1.35;;;17.60;99.90;;;;;;5059885;28;20021;-79
2023/08/03 06:28:44;;;;;;;4.82;1.42;;;17.50;99.90;;;;;;5075202;28;20379;-79
2023/08/03 06:31:19;;;;;;;1.73;0.63;;;17.60;99.90;;;;;;5083055;28;20032;-80
2023/08/03 06:33:46;;;;;;;2.45;0.70;;;17.60;99.90;;;;;;5082948;28;20040;-79
2023/08/03 06:36:20;;;;;;;9.23;3.45;;;17.50;99.90;;;;;;5082537;28;20028;-73
2023/08/03 06:38:47;;;;;;;1.02;0.80;;;17.40;99.90;;;;;;5074462;28;20067;-74
2023/08/03 06:41:13;;;;;;;2.10;0.50;;;17.50;99.90;;;;;;5075762;28;20028;-80
2023/08/03 06:43:39;;;;;;;4.55;1.77;;;17.50;99.90;;;;;;5084913;28;20052;-78
2023/08/03 06:46:06;;;;;;;4.28;0.70;;;17.60;99.90;;;;;;5075943;28;20067;-78
2023/08/03 06:48:33;;;;;;;2.92;0.40;;;17.60;99.90;;;;;;5087522;28;20028;-80
2023/08/03 06:51:01;;;;;;;0.10;0.10;;;17.70;99.90;;;;;;5093519;28;20030;-79
2023/08/03 06:53:28;;;;;;;0.15;0.15;;;17.70;99.90;;;;;;5091817;28;20376;-79
2023/08/03 06:55:53;;;;;;;1.92;0.88;;;17.90;99.90;;;;;;5093441;28;20132;-80
2023/08/03 06:58:19;;;;;;;9.70;4.28;;;17.80;99.90;;;;;;5093490;28;20036;-80
2023/08/03 07:00:46;;;;;;;0.30;0.30;;;17.90;99.90;;;;;;5093559;28;20393;-79
2023/08/03 07:03:12;;;;;;;8.90;4.28;;;17.80;99.90;;;;;;5093519;28;20040;-80
2023/08/03 07:05:42;;;;;;;4.70;1.83;;;17.70;99.90;;;;;;5087611;28;20036;-80
2023/08/03 07:08:08;;;;;;;1.27;0.30;;;17.60;99.90;;;;;;5075230;28;20051;-80
2023/08/03 07:10:35;;;;;;;6.95;1.02;;;17.80;99.90;;;;;;5080749;28;20573;-79
2023/08/03 07:13:01;;;;;;;0.52;0.52;;;17.80;99.90;;;;;;5080998;28;20401;-79
2023/08/03 07:15:33;;;;;;;2.72;0.63;;;17.90;99.90;;;;;;5077741;28;20524;-80
2023/08/03 07:18:03;;;;;;;16.52;1.50;;;18.10;99.90;;;;;;5078889;28;20405;-80
2023/08/03 07:20:29;;;;;;;0.22;0.13;;;17.90;99.90;;;;;;5074176;28;20099;-79
2023/08/03 07:22:55;;;;;;;3.95;0.20;;;17.90;99.90;;;;;;5078319;28;20094;-76
2023/08/03 07:25:21;;;;;;;1.45;0.32;;;18.10;99.90;;;;;;5076001;28;20028;-78
2023/08/03 07:27:46;;;;;;;5.07;1.23;;;18.00;99.90;;;;;;5074041;28;20496;-71
2023/08/03 07:30:12;;;;;;;0.88;0.75;;;18.30;99.90;;;;;;5076853;28;20051;-71
2023/08/03 07:32:38;;;;;;;5.63;1.60;;;18.30;99.90;;;;;;5068121;28;20024;-71
2023/08/03 07:35:04;;;;;;;0.00;0.00;;;18.10;99.90;;;;;;5079780;28;20025;-71
2023/08/03 07:37:30;;;;;;;5.85;1.15;;;18.20;99.90;;;;;;5075590;28;20072;-71
2023/08/03 07:39:57;;;;;;;2.45;0.50;;;18.10;99.90;;;;;;5086639;28;20118;-70
2023/08/03 07:42:23;;;;;;;2.83;1.08;;;18.00;99.90;;;;;;5078270;28;20077;-70
2023/08/03 07:44:55;;;;;;;6.05;1.75;;;18.10;99.90;;;;;;5085534;28;20541;-70
2023/08/03 07:47:21;;;;;;;2.60;0.40;;;17.80;99.90;;;;;;5080151;28;20380;-70
2023/08/03 07:49:47;;;;;;;0.80;0.60;;;17.80;99.90;;;;;;5091177;28;20429;-73
2023/08/03 07:52:13;;;;;;;0.17;0.17;;;17.70;99.90;;;;;;5084149;28;20028;-70
2023/08/03 07:54:38;;;;;;;2.55;0.17;;;17.70;99.90;;;;;;5078705;28;20095;-75
2023/08/03 07:57:05;;;;;;;19.17;2.78;;;17.60;99.90;;;;;;5079667;28;20392;-71
2023/08/03 07:59:31;;;;;;;6.28;0.40;;;17.60;99.90;;;;;;5076695;28;20060;-70
2023/08/03 08:01:58;;;;;;;5.05;2.58;;;17.60;99.90;;;;;;5075884;28;20024;-71
2023/08/03 08:04:24;;;;;;;9.02;1.35;;;17.60;99.90;;;;;;5076968;28;20493;-71
2023/08/03 08:06:50;;;;;;;1.45;0.98;;;17.60;99.90;;;;;;5072470;28;20043;-71
2023/08/03 08:09:16;;;;;;;1.38;0.85;;;17.60;99.90;;;;;;5083101;28;20055;-79
2023/08/03 08:11:42;;;;;;;0.32;0.32;;;17.70;99.90;;;;;;5079238;28;20473;-71
2023/08/03 08:14:08;;;;;;;2.22;0.52;;;17.60;99.90;;;;;;5082984;28;20103;-71
2023/08/03 08:16:34;;;;;;;1.08;0.47;;;18.00;99.90;;;;;;5074957;28;20108;-73
2023/08/03 08:19:00;;;;;;;9.88;0.82;;;17.70;99.90;;;;;;5073361;28;20102;-70
2023/08/03 08:21:25;;;;;;;0.03;0.03;;;17.60;99.90;;;;;;5072370;28;20016;-71
2023/08/03 08:23:51;;;;;;;1.25;0.50;;;17.50;99.90;;;;;;5082688;28;20420;-70
2023/08/03 08:26:18;;;;;;;11.68;1.85;;;17.50;99.90;;;;;;5082301;28;20028;-70
2023/08/03 08:28:46;;;;;;;0.75;0.20;;;17.60;99.90;;;;;;5075265;28;20024;-76
2023/08/03 08:31:12;;;;;;;0.47;0.20;;;17.80;99.90;;;;;;5073921;28;20111;-73
2023/08/03 08:33:39;;;;;;;0.55;0.38;;;17.60;99.90;;;;;;5082535;28;20471;-72
2023/08/03 08:36:05;;;;;;;0.20;0.10;;;17.70;99.90;;;;;;5083448;28;20046;-74
2023/08/03 08:38:32;;;;;;;2.53;0.30;;;17.70;99.90;;;;;;5077257;28;20036;-71
2023/08/03 08:41:02;;;;;;;1.13;0.82;;;17.70;99.90;;;;;;5071843;28;20021;-71
2023/08/03 08:43:28;;;;;;;3.30;0.65;;;17.70;99.90;;;;;;5073144;28;20115;-77
2023/08/03 08:45:54;;;;;;;3.20;0.57;;;17.60;99.90;;;;;;5085058;28;20103;-76
2023/08/03 08:48:20;;;;;;;5.10;0.75;;;17.50;99.90;;;;;;5084667;28;20028;-72
2023/08/03 08:50:46;;;;;;;5.50;2.65;;;17.40;99.90;;;;;;5091585;28;20083;-74
2023/08/03 08:53:14;;;;;;;2.55;1.38;;;17.50;99.90;;;;;;5091629;28;20081;-74
2023/08/03 08:55:40;;;;;;;0.05;0.05;;;17.40;99.90;;;;;;5091494;28;20465;-76
2023/08/03 08:58:06;;;;;;;4.55;0.55;;;17.40;99.90;;;;;;5078283;28;20177;-70
2023/08/03 09:00:46;;;;;;;12.20;0.60;;;17.60;99.90;;;;;;5081120;28;20108;-71
2023/08/03 09:03:14;;;;;;;4.85;0.70;;;17.90;99.90;;;;;;5072898;28;20041;-71
2023/08/03 09:05:40;;;;;;;2.95;0.85;;;17.80;99.90;;;;;;5072714;28;20150;-70
2023/08/03 09:08:18;;;;;;;22.48;2.53;;;17.90;99.90;;;;;;5078620;28;20482;-74
2023/08/03 09:10:48;;;;;;;5.38;2.15;;;17.90;99.90;;;;;;5079252;28;20029;-70
2023/08/03 09:13:35;;;;;;;4.55;1.17;;;17.70;99.90;;;;;;5072796;28;20358;-70
2023/08/03 09:16:01;;;;;;;1.48;1.02;;;17.50;99.90;;;;;;5075792;28;20040;-69
2023/08/03 09:18:30;;;;;;;3.85;0.68;;;17.60;99.90;;;;;;5077277;28;20076;-70
2023/08/03 09:21:13;;;;;;;0.20;0.20;;;17.70;99.90;;;;;;5070981;28;20082;-73
2023/08/03 09:23:39;;;;;;;6.63;0.52;;;17.90;99.90;;;;;;5070583;28;20472;-70
2023/08/03 09:26:06;;;;;;;0.90;0.88;;;18.00;99.90;;;;;;5071750;28;20021;-78
2023/08/03 09:28:42;;;;;;;0.50;0.50;;;18.00;99.90;;;;;;5072125;28;20056;-72
2023/08/03 09:31:10;;;;;;;0.28;0.28;;;17.90;99.90;;;;;;5072042;28;20409;-72
2023/08/03 09:33:36;;;;;;;3.42;1.00;;;17.90;99.90;;;;;;5071829;28;20024;-74
2023/08/03 09:36:14;;;;;;;0.63;0.63;;;17.90;99.90;;;;;;5071380;28;20029;-78
2023/08/03 09:38:42;;;;;;;0.10;0.10;;;18.00;99.90;;;;;;5071320;28;20041;-77
2023/08/03 09:41:12;;;;;;;2.50;0.90;;;17.90;99.90;;;;;;5072056;28;20098;-78
2023/08/03 09:43:42;;;;;;;4.20;2.63;;;17.80;99.90;;;;;;5071828;28;20182;-78
2023/08/03 09:46:08;;;;;;;3.10;1.13;;;17.80;99.90;;;;;;5071878;28;20025;-78
2023/08/03 09:48:33;;;;;;;1.00;0.45;;;17.80;99.90;;;;;;5084635;28;20031;-78
2023/08/03 09:51:03;;;;;;;3.33;1.23;;;17.80;99.90;;;;;;5092116;28;20380;-78
2023/08/03 09:53:34;;;;;;;0.45;0.40;;;17.80;99.90;;;;;;5093022;28;20105;-77
2023/08/03 09:56:01;;;;;;;1.13;0.95;;;17.80;99.90;;;;;;5095980;28;20035;-78
2023/08/03 09:58:35;;;;;;;0.45;0.45;;;17.80;99.90;;;;;;5094483;28;20496;-78
2023/08/03 10:01:04;;;;;;;6.32;2.08;;;17.70;99.90;;;;;;5090329;28;20452;-78
2023/08/03 10:03:32;;;;;;;1.20;0.60;;;17.80;99.90;;;;;;5085051;28;20036;-78
2023/08/03 10:06:13;;;;;;;6.32;1.55;;;17.80;99.90;;;;;;5074857;28;20029;-74
2023/08/03 10:09:04;;;;;;;4.68;0.63;;;17.70;99.90;;;;;;5075267;28;20034;-79
2023/08/03 10:11:35;;;;;;;0.90;0.63;;;18.00;99.90;;;;;;5073882;28;20043;-79
2023/08/03 10:14:03;;;;;;;4.90;0.75;;;18.30;99.90;;;;;;5075312;28;20032;-78
2023/08/03 10:16:32;;;;;;;1.70;1.30;;;18.20;99.90;;;;;;5073597;28;20098;-77
2023/08/03 10:18:58;;;;;;;0.65;0.65;;;18.20;99.90;;;;;;5074850;28;20123;-75
2023/08/03 10:21:24;;;;;;;0.00;0.00;;;18.20;99.90;;;;;;5074595;28;20430;-79
2023/08/03 10:24:15;;;;;;;0.38;0.38;;;18.40;99.90;;;;;;5074842;28;20111;-78
2023/08/03 10:26:42;;;;;;;0.43;0.38;;;18.50;99.90;;;;;;5083671;28;20020;-76
2023/08/03 10:29:08;;;;;;;0.30;0.30;;;18.50;99.90;;;;;;5074898;28;20104;-73
2023/08/03 10:31:54;;;;;;;1.75;1.65;;;18.60;99.90;;;;;;5074717;28;20107;-70
2023/08/03 10:34:27;;;;;;;0.98;0.60;;;18.50;99.90;;;;;;5074589;28;20035;-70
2023/08/03 10:36:55;;;;;;;0.00;0.00;;;18.60;99.90;;;;;;5074425;28;20473;-70
2023/08/03 10:39:49;;;;;;;0.52;0.20;;;18.60;99.90;;;;;;5074712;28;20028;-73
2023/08/03 10:42:35;;;;;;;1.75;1.10;;;18.50;99.90;;;;;;5074727;28;20078;-71
2023/08/03 10:45:22;;;;;;;0.00;0.00;;;18.20;99.90;;;;;;5074347;28;20032;-70
2023/08/03 10:47:49;;;;;;;0.63;0.28;;;18.30;99.90;;;;;;5080932;28;20035;-70
2023/08/03 10:50:14;;;;;;;0.32;0.22;;;18.20;99.90;;;;;;5094631;28;20032;-71
2023/08/03 10:52:40;;;;;;;1.48;0.70;;;18.50;99.90;;;;;;5094736;28;20028;-70
2023/08/03 10:55:26;;;;;;;0.80;0.60;;;18.40;99.90;;;;;;5094706;28;20386;-70
2023/08/03 10:57:54;;;;;;;1.02;0.95;;;18.40;99.90;;;;;;5094585;28;20473;-70
2023/08/03 11:00:21;;;;;;;1.65;0.35;;;18.60;99.90;;;;;;5094378;28;20016;-70
2023/08/03 11:02:47;;;;;;;1.27;0.77;;;18.60;99.90;;;;;;5094263;28;20115;-70
2023/08/03 11:05:13;;;;;;;6.03;0.88;;;18.50;99.90;;;;;;5093945;28;20027;-70
2023/08/03 11:07:41;;;;;;;0.32;0.32;;;18.60;99.90;;;;;;5094479;28;20027;-71
2023/08/03 11:10:10;;;;;;;0.77;0.40;;;18.50;99.90;;;;;;5094270;28;20028;-70
2023/08/03 11:12:36;;;;;;;0.10;0.10;;;18.80;99.90;;;;;;5092913;28;20035;-70
2023/08/03 11:15:03;;;;;;;5.07;1.45;;;18.80;99.90;;;;;;5094498;28;20058;-70
2023/08/03 11:17:31;;;;;;;0.20;0.20;;;18.80;99.90;;;;;;5094076;28;20387;-70
2023/08/03 11:19:58;;;;;;;0.10;0.10;;;18.50;99.90;;;;;;5093842;28;20035;-70
2023/08/03 11:22:25;;;;;;;0.28;0.28;;;18.50;99.90;;;;;;5094211;28;20043;-70
2023/08/03 11:24:56;;;;;;;2.47;0.65;;;18.70;99.90;;;;;;5093911;28;20526;-70
2023/08/03 11:27:22;;;;;;;9.85;0.40;;;18.60;99.90;;;;;;5094205;28;20032;-70
2023/08/03 11:29:50;;;;;;;0.75;0.20;;;18.60;99.90;;;;;;5093715;28;20333;-71
2023/08/03 11:32:32;;;;;;;1.35;0.30;;;18.50;99.90;;;;;;5094026;28;20028;-71
2023/08/03 11:35:04;;;;;;;0.20;0.20;;;18.40;99.90;;;;;;5093405;28;20036;-70
2023/08/03 11:37:31;;;;;;;2.90;0.40;;;18.40;99.90;;;;;;5093894;28;20100;-70
2023/08/03 11:39:59;;;;;;;0.05;0.05;;;18.40;99.90;;;;;;5093630;28;20103;-70
2023/08/03 11:42:25;;;;;;;0.00;0.00;;;18.40;99.90;;;;;;5075791;28;20031;-70
2023/08/03 11:44:50;;;;;;;2.15;1.33;;;18.50;99.90;;;;;;5092337;28;20024;-70
2023/08/03 11:47:16;;;;;;;2.35;0.22;;;18.50;99.90;;;;;;5079239;28;20504;-70
2023/08/03 11:49:42;;;;;;;3.65;0.38;;;18.50;99.90;;;;;;5093362;28;20377;-71
2023/08/03 11:52:17;;;;;;;0.17;0.17;;;18.90;99.90;;;;;;5093649;28;20024;-70
2023/08/03 11:54:44;;;;;;;9.82;0.50;;;18.90;99.90;;;;;;5093621;28;20023;-70
2023/08/03 12:00:01;;;;;;;2.13;0.85;;;19.10;99.90;;;;;;5082877;28;20135;-70
2023/08/03 12:02:41;;;;;;;0.10;0.10;;;19.10;99.90;;;;;;5092826;28;20040;-70
2023/08/03 12:05:07;;;;;;;5.93;1.33;;;19.00;99.90;;;;;;5093464;28;20245;-70
2023/08/03 12:07:33;;;;;;;6.05;3.00;;;18.80;99.90;;;;;;5093347;28;20431;-70
2023/08/03 12:09:59;;;;;;;0.32;0.22;;;18.80;99.90;;;;;;5093666;28;20349;-70
2023/08/03 12:12:25;;;;;;;2.67;0.32;;;18.80;99.90;;;;;;5093094;28;20480;-70
2023/08/03 12:14:51;;;;;;;0.00;0.00;;;18.60;99.90;;;;;;5093094;28;20032;-70
2023/08/03 12:17:17;;;;;;;4.32;1.83;;;18.80;99.90;;;;;;5092258;28;20035;-70
2023/08/03 12:19:43;;;;;;;0.20;0.20;;;19.00;99.90;;;;;;5093076;28;20028;-72
2023/08/03 12:22:08;;;;;;;11.50;3.92;;;19.20;99.90;;;;;;5091896;28;20033;-71
2023/08/03 12:24:34;;;;;;;0.55;0.55;;;19.50;99.90;;;;;;5093357;28;20174;-70
2023/08/03 12:27:03;;;;;;;0.00;0.00;;;19.60;99.90;;;;;;5092746;28;20034;-70
2023/08/03 12:29:30;;;;;;;3.15;1.15;;;19.80;99.90;;;;;;5093009;28;20090;-70
2023/08/03 12:31:55;;;;;;;2.13;1.35;;;19.70;99.90;;;;;;5092542;28;20373;-70
2023/08/03 12:34:21;;;;;;;0.80;0.80;;;20.00;99.90;;;;;;5092909;28;20036;-71
2023/08/03 12:36:47;;;;;;;30.50;2.47;;;20.30;99.90;;;;;;5092767;28;20024;-70
2023/08/03 12:39:13;;;;;;;1.40;1.17;;;20.50;99.90;;;;;;5092964;28;20036;-70
2023/08/03 12:41:39;;;;;;;8.70;1.27;;;20.10;99.90;;;;;;5091356;28;20027;-70
2023/08/03 12:44:04;;;;;;;0.00;0.00;;;19.70;99.90;;;;;;5093116;28;20059;-71
2023/08/03 12:46:30;;;;;;;0.13;0.13;;;19.70;99.90;;;;;;5082908;28;20040;-79
2023/08/03 12:48:58;;;;;;;0.00;0.00;;;19.70;99.90;;;;;;5088410;28;20020;-78
2023/08/03 12:51:24;;;;;;;2.20;0.40;;;19.80;99.90;;;;;;5092573;28;20432;-78